Pagina principale
METAR-TAF:

METAR-TAF

Aeroporti :

San Gallo, Svizzera

latitudine: 47-29-06N, longitudine: 009-33-43E, altezza: 398 m

Osservazione

Il bollettino è stato emesso 32 minuti fa, alle 11:50 UTC
Vento 18 kt da ovest/nord-ovest
Temperature 4°C
Umidità 87%
Pressione 1020 hPa
Visibilità: 5000 m
Poco nuvoloso ad un'altezza di 800 ft
Nuvoloso ad un'altezza di 1400 ft
pioggia debole

METAR: LSZR 191150Z 29018KT 5000 -RA FEW008 BKN014 04/02 Q1020 NOSIG RMK D

Ora: 13:22 (12:22 UTC)

Previsione

Il bollettino è stato emesso 57 minuti fa, alle 11:25 UTC
Previsione valida dal 19 alle 12 UTC al 19 alle 21 UTC
Vento 10 kt da ovest
Visibilità 10 km o più
Nuvoloso ad un'altezza di 2500 ft
Probabilità 40% :
Temporaneamente
dal 19 alle 12 UTC al 19 alle 17 UTC
rovesci di pioggia
Evoluzione graduale
dal 19 alle 16 UTC al 19 alle 18 UTC
Vento 3 kt da direzioni variabili

TAF: LSZR 191125Z 1912/1921 28010KT 9999 BKN025 PROB40 TEMPO 1912/1917 SHRA BECMG 1916/1918 VRB03KT

Osservazioni e previsioni meteorologiche di più di 4000 aeroporti (messaggi METAR e TAF).

Le stazioni disponibili sono rappresentate dai dischi gialli e rossi sulla carta.

Puntare il mouse per vedere il nome della stazione.

Clicca sopra per visualizzare le osservazioni e previsioni meteorologiche.

Per cambiare la mappa : fare clic sui pulsanti verdi con una croce nera per ingrandire, il pulsante verde con un trattino per diminuire, o sulla freccia verde per le mappe adiacenti.


METAR-TAF: